Flight Track Log - Related Links

Times and Time Zones

All times are in EDT time to prevent confusion due to time zone crossing. See the ASQ4209 flight status page for this flight to view local times or setup timezone preferences in your user account.

Time Position Orientation Groundspeed Altitude Reporting Facility
EDT Latitude Longitude Course Direction KTS MPH feet Rate Location/Type
Sat 08:48:40 AM 41.4214 -81.8375 27° Northeast 165 190 2,000  Level Cleveland Center
Sat 08:50:08 AM 41.5014 -81.7836 27° Northeast 250 288 5,800 2,919 Climbing Cleveland Center
Sat 08:51:08 AM 41.5644 -81.7264 34° Northeast 270 311 9,200 2,800 Climbing Cleveland Center
Sat 08:52:08 AM 41.6319 -81.6500 40° Northeast 287 330 11,400 2,050 Climbing Cleveland Center
Sat 08:53:08 AM 41.7097 -81.5650 39° Northeast 331 381 13,300 2,050 Climbing Cleveland Center
Sat 08:54:08 AM 41.7875 -81.4769 40° Northeast 355 409 15,500 2,150 Climbing Cleveland Center
Sat 08:55:08 AM 41.8489 -81.3608 55° Northeast 366 421 17,600 2,050 Climbing Cleveland Center
Sat 08:56:08 AM 41.8706 -81.2161 79° East 371 427 19,600 2,050 Climbing Cleveland Center
Sat 08:57:08 AM 41.8944 -81.0686 78° East 394 453 21,700 2,200 Climbing Cleveland Center
Sat 08:58:08 AM 41.9156 -80.9208 79° East 400 460 24,000 2,050 Climbing Cleveland Center
Sat 08:59:08 AM 41.9347 -80.7869 79° East 405 466 25,800 2,100 Climbing Cleveland Center
Sat 09:00:08 AM 41.9578 -80.6419 78° East 405 466 28,200 1,600 Climbing Cleveland Center
Sat 09:01:08 AM 41.9808 -80.4939 78° East 400 460 29,000 400 Climbing Cleveland Center
Sat 09:02:08 AM 42.0033 -80.3261 80° East 430 495 29,000  Level Cleveland Center
Sat 09:03:08 AM 42.0281 -80.1500 79° East 468 539 29,000  Level Cleveland Center
Sat 09:04:08 AM 42.0583 -79.9511 78° East 485 558 29,000  Level Cleveland Center
Sat 09:05:08 AM 42.0822 -79.7692 80° East 490 564 29,000  Level Cleveland Center
Sat 09:06:08 AM 42.1078 -79.5867 79° East 490 564 29,000  Level Cleveland Center
Sat 09:07:08 AM 42.1333 -79.4044 79° East 490 564 29,000  Level Cleveland Center
Sat 09:08:08 AM 42.1583 -79.2219 79° East 490 564 29,000  Level Cleveland Center
Sat 09:09:08 AM 42.1831 -79.0364 80° East 491 565 29,000  Level Cleveland Center
Sat 09:10:08 AM 42.2075 -78.8508 80° East 491 565 29,000  Level Cleveland Center
Sat 09:11:08 AM 42.2317 -78.6678 80° East 491 565 29,000  Level Cleveland Center
Sat 09:12:08 AM 42.2556 -78.4847 80° East 491 565 29,000  Level Cleveland Center
Sat 09:13:08 AM 42.2792 -78.2989 80° East 491 565 29,000  Level Cleveland Center
Sat 09:14:08 AM 42.3003 -78.1156 81° East 491 565 29,000  Level Cleveland Center
Sat 09:15:08 AM 42.3253 -77.9264 80° East 491 565 29,000  Level Cleveland Center
Sat 09:16:08 AM 42.3481 -77.7400 81° East 491 565 29,000  Level Cleveland Center
Sat 09:17:08 AM 42.3683 -77.5564 81° East 491 565 29,000  Level Cleveland Center
Sat 09:18:55 AM 42.4081 -77.2183 81° East 502 578 29,000  Level Boston Center
Sat 09:19:55 AM 42.4306 -77.0317 81° East 502 578 29,000  Level Boston Center
Sat 09:20:55 AM 42.4506 -76.8417 82° East 502 578 29,000  Level Boston Center
Sat 09:21:55 AM 42.4722 -76.6517 81° East 502 578 29,000  Level Boston Center
Sat 09:22:55 AM 42.4919 -76.4586 82° East 502 578 29,000  Level Boston Center
Sat 09:23:55 AM 42.5131 -76.2711 81° East 502 578 29,000  Level Boston Center
Sat 09:24:55 AM 42.5339 -76.0808 81° East 507 583 29,000 -200 Level Boston Center
Sat 09:25:55 AM 42.5544 -75.8875 82° East 507 583 28,600 -1,150 Descending Boston Center
Sat 09:26:55 AM 42.5728 -75.6939 83° East 512 589 26,700 -1,900 Descending Boston Center
Sat 09:27:55 AM 42.5944 -75.5089 81° East 512 589 24,800 -1,950 Descending Boston Center
Sat 09:28:55 AM 42.6094 -75.3317 83° East 490 564 22,800 -1,950 Descending Boston Center
Sat 09:29:55 AM 42.6264 -75.1606 82° East 472 543 20,900 -2,150 Descending Boston Center
Sat 09:30:55 AM 42.6425 -75.0003 82° East 456 525 18,500 -2,200 Descending Boston Center
Sat 09:31:55 AM 42.6542 -74.8483 84° East 425 489 16,500 -2,204 Descending Boston Center
Sat 09:32:33 AM 42.6622 -74.7581 83° East 380 437 14,900 -2,600 Descending Boston Center
Sat 09:32:55 AM 42.6675 -74.7047 82° East 386 444 13,900 -2,341 Descending Boston Center
Sat 09:33:55 AM 42.6806 -74.5669 83° East 376 433 11,700 -1,450 Descending Boston Center
Sat 09:34:55 AM 42.6914 -74.4317 84° East 361 415 11,000 -800 Descending Boston Center
Sat 09:35:55 AM 42.6850 -74.3156 94° East 328 377 10,100 -1,400 Descending Boston Center
Sat 09:36:55 AM 42.6783 -74.2081 95° East 293 337 8,200 -1,750 Descending Boston Center
Sat 09:37:55 AM 42.6739 -74.1033 93° East 279 321 6,600 -1,714 Descending Boston Center
Sat 09:38:12 AM 42.6719 -74.0781 96° East 274 315 6,000 -1,600 Descending Boston Center
Sat 09:38:55 AM 42.6689 -74.0158 94° East 272 313 5,000 -1,672 Descending Boston Center
Sat 09:39:13 AM 42.6650 -73.9789 98° East 260 299 4,300 -1,800 Descending Boston Center
Sat 09:39:55 AM 42.6639 -73.9225 92° East 259 298 3,200 -1,770 Descending Boston Center
Sat 09:40:14 AM 42.6600 -73.8800 97° East 248 285 2,500 -1,000 Descending Boston Center
Sat 09:40:55 AM 42.6567 -73.8178 94° East 254 292 2,200 -700 Descending Boston Center
Sat 09:41:14 AM 42.6736 -73.8097 19° North 178 205 1,800 -1,054 Descending Boston Center
Sat 09:42:09 AM 42.7069 -73.8047 North 123 142 900 -982 Descending Boston Center

Login

Don't have an account? Register now (free) for customized features, flight alerts, and more!